Time,TemperatureF,DewpointF,PressureIn,WindDirection,WindDirectionDegrees,WindSpeedMPH,WindSpeedGustMPH,Humidity,HourlyPrecipIn,Conditions,Clouds,dailyrainin,SoftwareType,DateUTC
2013-07-18 00:01:00,88.0,70.0,-100.00,SW,225,7.0,11.0,54,0.00,,,0.00,,2013-07-18 00:01:00,
2013-07-18 00:11:00,87.0,72.0,-100.00,SW,230,7.0,12.0,58,0.00,,,0.00,,2013-07-18 00:11:00,
2013-07-18 00:22:00,88.0,72.0,-100.00,SW,215,6.0,11.0,60,0.00,,,0.00,,2013-07-18 00:22:00,
2013-07-18 00:33:00,87.0,72.0,-100.00,SW,225,7.0,10.0,59,0.00,,,0.00,,2013-07-18 00:33:00,
2013-07-18 00:52:00,86.0,72.0,-100.00,SW,215,6.0,8.0,63,0.00,,,0.00,,2013-07-18 00:52:00,
2013-07-18 01:01:00,86.0,72.0,-100.00,SW,215,6.0,8.0,64,0.00,,,0.00,,2013-07-18 01:01:00,
2013-07-18 01:22:00,85.0,73.0,-100.00,SSW,210,5.0,6.0,67,0.00,,,0.00,,2013-07-18 01:22:00,
2013-07-18 01:32:00,84.0,73.0,-100.00,SSW,210,5.0,6.0,68,0.00,,,0.00,,2013-07-18 01:32:00,
2013-07-18 02:02:00,79.0,73.0,-100.00,SSW,200,6.0,6.0,81,0.00,,,0.00,,2013-07-18 02:02:00,
2013-07-18 02:11:00,79.0,72.0,-100.00,SSW,200,6.0,7.0,78,0.00,,,0.00,,2013-07-18 02:11:00,
2013-07-18 02:22:00,78.0,72.0,-100.00,South,190,5.0,6.0,82,0.00,,,0.00,,2013-07-18 02:22:00,
2013-07-18 02:32:00,78.0,73.0,-100.00,South,185,4.0,6.0,83,0.00,,,0.00,,2013-07-18 02:32:00,
2013-07-18 03:01:00,77.0,72.0,-100.00,South,180,5.0,6.0,85,0.00,,,0.00,,2013-07-18 03:01:00,
2013-07-18 03:11:00,76.0,73.0,-100.00,South,170,5.0,6.0,87,0.00,,,0.00,,2013-07-18 03:11:00,
2013-07-18 03:32:00,76.0,72.0,-100.00,SSE,160,6.0,6.0,85,0.00,,,0.00,,2013-07-18 03:32:00,
2013-07-18 04:02:00,77.0,72.0,-100.00,SSE,165,4.0,4.0,85,0.00,,,0.00,,2013-07-18 04:02:00,
2013-07-18 04:12:00,76.0,72.0,-100.00,SSE,165,4.0,4.0,85,0.00,,,0.00,,2013-07-18 04:12:00,
2013-07-18 04:22:00,76.0,72.0,-100.00,SSE,155,4.0,5.0,86,0.00,,,0.00,,2013-07-18 04:22:00,
2013-07-18 04:43:00,75.0,72.0,-100.00,SSE,160,4.0,6.0,87,0.00,,,0.00,,2013-07-18 04:43:00,
2013-07-18 05:11:00,76.0,72.0,-100.00,SSE,165,3.0,4.0,86,0.00,,,0.00,,2013-07-18 05:11:00,
2013-07-18 05:22:00,75.0,72.0,-100.00,SSE,165,2.0,4.0,87,0.00,,,0.00,,2013-07-18 05:22:00,
2013-07-18 06:01:00,74.0,72.0,-100.00,South,180,4.0,4.0,91,0.00,,,0.00,,2013-07-18 06:01:00,
2013-07-18 06:12:00,73.0,70.0,-100.00,South,190,5.0,6.0,90,0.00,,,0.00,,2013-07-18 06:12:00,
2013-07-18 06:22:00,73.0,70.0,-100.00,SSW,195,6.0,6.0,90,0.00,,,0.00,,2013-07-18 06:22:00,
2013-07-18 06:52:00,72.0,70.0,-100.00,SSW,205,5.0,6.0,92,0.00,,,0.00,,2013-07-18 06:52:00,
2013-07-18 07:01:00,72.0,70.0,-100.00,SSW,200,6.0,6.0,91,0.00,,,0.00,,2013-07-18 07:01:00,
2013-07-18 07:12:00,72.0,70.0,-100.00,SSW,200,6.0,6.0,91,0.00,,,0.00,,2013-07-18 07:12:00,
2013-07-18 07:52:00,72.0,70.0,-100.00,SSW,195,7.0,7.0,89,0.00,,,0.00,,2013-07-18 07:52:00,
2013-07-18 08:11:00,72.0,70.0,-100.00,SW,215,6.0,7.0,91,0.00,,,0.00,,2013-07-18 08:11:00,
2013-07-18 08:21:00,72.0,70.0,-100.00,SSW,195,6.0,7.0,90,0.00,,,0.00,,2013-07-18 08:21:00,
2013-07-18 09:01:00,72.0,70.0,-100.00,SSW,205,7.0,9.0,88,0.00,,,0.00,,2013-07-18 09:01:00,
2013-07-18 09:11:00,72.0,68.0,-100.00,SSW,210,7.0,9.0,88,0.00,,,0.00,,2013-07-18 09:11:00,
2013-07-18 10:01:00,73.0,68.0,-100.00,SSW,210,9.0,12.0,84,0.00,,,0.00,,2013-07-18 10:01:00,
2013-07-18 10:11:00,74.0,68.0,-100.00,SSW,205,9.0,13.0,84,0.00,,,0.00,,2013-07-18 10:11:00,
2013-07-18 10:21:00,73.0,68.0,-100.00,SSW,200,8.0,13.0,84,0.00,,,0.00,,2013-07-18 10:21:00,
2013-07-18 10:52:00,74.0,68.0,-100.00,SSW,205,10.0,14.0,83,0.00,,,0.00,,2013-07-18 10:52:00,
2013-07-18 11:01:00,74.0,68.0,-100.00,SSW,200,10.0,12.0,83,0.00,,,0.00,,2013-07-18 11:01:00,
2013-07-18 11:11:00,74.0,68.0,-100.00,SSW,205,10.0,14.0,83,0.00,,,0.00,,2013-07-18 11:11:00,
2013-07-18 11:22:00,74.0,68.0,-100.00,SSW,205,7.0,13.0,83,0.00,,,0.00,,2013-07-18 11:22:00,
2013-07-18 11:43:00,75.0,68.0,-100.00,SSW,200,9.0,14.0,81,0.00,,,0.00,,2013-07-18 11:43:00,
2013-07-18 12:22:00,78.0,70.0,-100.00,SSW,205,13.0,17.0,73,0.00,,,0.00,,2013-07-18 12:22:00,
2013-07-18 12:52:00,79.0,70.0,-100.00,SW,220,11.0,18.0,73,0.00,,,0.00,,2013-07-18 12:52:00,
2013-07-18 13:11:00,79.0,70.0,-100.00,SSW,210,13.0,17.0,72,0.00,,,0.00,,2013-07-18 13:11:00,
2013-07-18 14:02:00,82.0,70.0,-100.00,SSW,210,12.0,19.0,67,0.00,,,0.00,,2013-07-18 14:02:00,
2013-07-18 14:11:00,82.0,70.0,-100.00,SW,220,13.0,19.0,65,0.00,,,0.00,,2013-07-18 14:11:00,
2013-07-18 14:33:00,83.0,70.0,-100.00,SW,215,15.0,20.0,65,0.00,,,0.00,,2013-07-18 14:33:00,
2013-07-18 15:01:00,84.0,70.0,-100.00,SW,220,14.0,22.0,63,0.00,,,0.00,,2013-07-18 15:01:00,
2013-07-18 15:11:00,84.0,72.0,-100.00,SW,220,13.0,20.0,63,0.00,,,0.00,,2013-07-18 15:11:00,
2013-07-18 15:22:00,85.0,70.0,-100.00,SW,225,15.0,21.0,62,0.00,,,0.00,,2013-07-18 15:22:00,
2013-07-18 16:01:00,86.0,72.0,-100.00,SSW,205,12.0,21.0,63,0.00,,,0.00,,2013-07-18 16:01:00,
2013-07-18 16:11:00,86.0,72.0,-100.00,SW,220,15.0,22.0,61,0.00,,,0.00,,2013-07-18 16:11:00,
2013-07-18 16:22:00,87.0,70.0,-100.00,SW,215,16.0,22.0,58,0.00,,,0.00,,2013-07-18 16:22:00,
2013-07-18 16:52:00,87.0,72.0,-100.00,SW,230,16.0,24.0,59,0.00,,,0.00,,2013-07-18 16:52:00,
2013-07-18 17:11:00,87.0,70.0,-100.00,SSW,210,21.0,24.0,55,0.00,,,0.00,,2013-07-18 17:11:00,
2013-07-18 17:33:00,88.0,72.0,-100.00,SSW,205,18.0,24.0,58,0.00,,,0.00,,2013-07-18 17:33:00,
2013-07-18 18:11:00,89.0,72.0,-100.00,SSW,210,17.0,24.0,56,0.00,,,0.00,,2013-07-18 18:11:00,
2013-07-18 18:22:00,89.0,72.0,-100.00,SSW,205,17.0,24.0,56,0.00,,,0.00,,2013-07-18 18:22:00,
2013-07-18 18:52:00,89.0,72.0,-100.00,SSW,205,19.0,24.0,55,0.00,,,0.00,,2013-07-18 18:52:00,
2013-07-18 19:11:00,90.0,72.0,-100.00,SW,225,17.0,23.0,54,0.00,,,0.00,,2013-07-18 19:11:00,
2013-07-18 20:11:00,88.0,70.0,-100.00,SSW,210,19.0,30.0,53,0.00,,,0.00,,2013-07-18 20:11:00,
2013-07-18 20:32:00,90.0,70.0,-100.00,SW,215,22.0,27.0,53,0.00,,,0.00,,2013-07-18 20:32:00,
2013-07-18 20:52:00,90.0,72.0,-100.00,SSW,205,19.0,26.0,54,0.00,,,0.00,,2013-07-18 20:52:00,
2013-07-18 21:01:00,90.0,70.0,-100.00,SSW,205,19.0,26.0,52,0.00,,,0.00,,2013-07-18 21:01:00,
2013-07-18 21:11:00,89.0,70.0,-100.00,SSW,205,22.0,27.0,53,0.00,,,0.00,,2013-07-18 21:11:00,
2013-07-18 21:22:00,90.0,72.0,-100.00,SW,220,16.0,26.0,54,0.00,,,0.00,,2013-07-18 21:22:00,
2013-07-18 21:52:00,90.0,70.0,-100.00,SW,220,20.0,27.0,52,0.00,,,0.00,,2013-07-18 21:52:00,
2013-07-18 22:01:00,90.0,72.0,-100.00,SW,220,16.0,27.0,55,0.00,,,0.00,,2013-07-18 22:01:00,
2013-07-18 22:11:00,90.0,70.0,-100.00,SW,220,19.0,29.0,52,0.00,,,0.00,,2013-07-18 22:11:00,
2013-07-18 23:11:00,89.0,70.0,-100.00,SW,220,18.0,28.0,53,0.00,,,0.00,,2013-07-18 23:11:00,
2013-07-18 23:22:00,89.0,72.0,-100.00,SW,225,21.0,28.0,54,0.00,,,0.00,,2013-07-18 23:22:00,